createdAt,value
2017-10-26T00:00:58.775Z,90.32
2017-10-26T00:05:02.205Z,90.17
2017-10-26T00:09:05.686Z,90.54
2017-10-26T00:13:09.956Z,90.81
2017-10-26T00:17:13.407Z,90.69
2017-10-26T00:21:17.590Z,90.96
2017-10-26T00:25:21.030Z,90.85
2017-10-26T00:29:25.218Z,90.70
2017-10-26T00:33:28.669Z,90.62
2017-10-26T00:37:32.854Z,90.79
2017-10-26T00:41:36.313Z,91.02
2017-10-26T00:45:40.502Z,91.30
2017-10-26T00:49:43.943Z,91.01
2017-10-26T00:53:48.133Z,91.20
2017-10-26T00:57:51.884Z,90.85
2017-10-26T01:01:55.286Z,91.27
2017-10-26T01:05:59.819Z,90.94
2017-10-26T01:10:03.195Z,90.62
2017-10-26T01:14:06.612Z,91.57
2017-10-26T01:18:10.035Z,91.31
2017-10-26T01:22:14.274Z,91.06
2017-10-26T01:26:17.679Z,90.79
2017-10-26T01:30:21.366Z,90.69
2017-10-26T01:34:25.519Z,90.78
2017-10-26T01:38:28.939Z,90.74
2017-10-26T01:42:32.339Z,91.20
2017-10-26T01:46:36.030Z,90.96
2017-10-26T01:50:39.422Z,90.85
2017-10-26T01:54:43.675Z,90.78
2017-10-26T01:58:47.054Z,90.67
2017-10-26T02:02:51.562Z,90.57
2017-10-26T02:06:54.963Z,90.55
2017-10-26T02:10:58.719Z,90.47
2017-10-26T02:15:02.152Z,90.75
2017-10-26T02:19:05.842Z,90.89
2017-10-26T02:23:09.251Z,90.81
2017-10-26T02:27:13.468Z,90.86
2017-10-26T02:31:34.560Z,90.81
2017-10-26T02:35:37.999Z,90.79
2017-10-26T02:39:41.420Z,91.35
2017-10-26T02:43:44.872Z,90.93
2017-10-26T02:47:48.288Z,90.95
2017-10-26T02:51:51.744Z,90.91
2017-10-26T02:55:55.192Z,90.99
2017-10-26T02:59:58.659Z,90.81
2017-10-26T03:04:02.097Z,91.24
2017-10-26T03:08:05.555Z,91.32
2017-10-26T03:12:08.969Z,91.55
2017-10-26T03:16:12.398Z,91.33
2017-10-26T03:20:15.824Z,91.13
2017-10-26T03:24:19.670Z,90.99
2017-10-26T03:28:23.855Z,90.86
2017-10-26T03:32:27.615Z,90.90
2017-10-26T03:36:31.041Z,90.82
2017-10-26T03:40:34.490Z,90.80
2017-10-26T03:44:37.922Z,90.61
2017-10-26T03:48:41.359Z,90.37
2017-10-26T03:52:44.778Z,90.37
2017-10-26T03:56:48.240Z,90.33
2017-10-26T04:00:51.648Z,90.35
2017-10-26T04:04:55.877Z,90.27
2017-10-26T04:09:00.069Z,90.42
2017-10-26T04:13:03.568Z,90.27
2017-10-26T04:17:07.003Z,90.07
2017-10-26T04:21:10.447Z,90.16
2017-10-26T04:25:13.864Z,90.19
2017-10-26T04:29:17.620Z,90.15
2017-10-26T04:33:21.033Z,90.21
2017-10-26T04:37:24.778Z,90.09
2017-10-26T04:41:28.191Z,89.90
2017-10-26T04:45:31.668Z,90.12
2017-10-26T04:49:35.848Z,90.29
2017-10-26T04:53:39.625Z,90.38
2017-10-26T04:57:43.034Z,90.46
2017-10-26T05:01:46.532Z,90.73
2017-10-26T05:05:50.719Z,90.94
2017-10-26T05:09:54.200Z,90.58
2017-10-26T05:13:58.392Z,90.58
2017-10-26T05:18:02.610Z,91.16
2017-10-26T05:22:06.807Z,91.18
2017-10-26T05:26:10.331Z,91.21
2017-10-26T05:30:13.746Z,91.16
2017-10-26T05:34:17.942Z,90.97
2017-10-26T05:38:21.338Z,91.00
2017-10-26T05:42:25.063Z,90.88
2017-10-26T05:46:28.471Z,91.11
2017-10-26T05:50:31.921Z,90.92
2017-10-26T05:54:35.339Z,90.84
2017-10-26T05:58:38.797Z,91.09
2017-10-26T06:02:42.223Z,91.01
2017-10-26T06:06:46.436Z,90.98
2017-10-26T06:10:50.622Z,91.03
2017-10-26T06:14:54.065Z,91.24
2017-10-26T06:18:58.275Z,91.37
2017-10-26T06:23:01.720Z,91.26
2017-10-26T06:27:05.143Z,91.34
2017-10-26T06:31:08.615Z,91.52
2017-10-26T06:35:12.806Z,91.40
2017-10-26T06:39:16.259Z,91.06
2017-10-26T06:43:20.424Z,90.84
2017-10-26T06:47:24.206Z,90.61
2017-10-26T06:51:27.619Z,90.40
2017-10-26T06:55:31.069Z,90.29
2017-10-26T06:59:34.495Z,90.01
2017-10-26T07:03:37.935Z,89.49
2017-10-26T07:07:41.345Z,88.98
2017-10-26T07:11:44.787Z,88.37
2017-10-26T07:15:48.208Z,87.28
2017-10-26T07:19:51.964Z,87.22
2017-10-26T07:23:55.405Z,87.50
2017-10-26T07:27:58.842Z,87.41
2017-10-26T07:32:02.252Z,87.41
2017-10-26T07:36:05.964Z,87.32
2017-10-26T07:40:09.375Z,86.98
2017-10-26T07:44:13.126Z,86.21
2017-10-26T07:48:16.543Z,85.98
2017-10-26T07:52:19.987Z,85.12
2017-10-26T07:56:23.408Z,84.63
2017-10-26T08:00:26.848Z,84.08
2017-10-26T08:04:30.282Z,84.00
2017-10-26T08:08:34.000Z,82.48
2017-10-26T08:12:37.507Z,83.47
2017-10-26T08:16:40.959Z,81.41
2017-10-26T08:20:45.115Z,81.85
2017-10-26T08:24:49.324Z,82.18
2017-10-26T08:28:52.750Z,82.44
2017-10-26T08:32:56.197Z,82.70
2017-10-26T08:36:59.620Z,82.46
2017-10-26T08:41:03.359Z,80.99
2017-10-26T08:45:06.769Z,79.97
2017-10-26T08:49:10.223Z,78.71
2017-10-26T08:53:13.641Z,79.41
2017-10-26T08:57:17.071Z,79.26
2017-10-26T09:01:20.489Z,78.27
2017-10-26T09:05:23.917Z,77.62
2017-10-26T09:09:27.318Z,78.07
2017-10-26T09:13:30.771Z,77.14
2017-10-26T09:17:34.190Z,77.03
2017-10-26T09:21:38.391Z,77.01
2017-10-26T09:25:41.788Z,76.17
2017-10-26T09:29:45.259Z,76.26
2017-10-26T09:33:48.683Z,75.91
2017-10-26T09:37:52.112Z,77.11
2017-10-26T09:41:55.520Z,77.79
2017-10-26T09:45:58.944Z,77.37
2017-10-26T09:50:02.344Z,77.29
2017-10-26T09:54:05.808Z,76.13
2017-10-26T09:58:09.218Z,75.23
2017-10-26T10:02:12.673Z,74.83
2017-10-26T10:06:16.091Z,74.48
2017-10-26T10:10:20.295Z,74.17
2017-10-26T10:14:23.698Z,74.49
2017-10-26T10:18:27.143Z,73.61
2017-10-26T10:22:30.547Z,73.43
2017-10-26T10:26:34.029Z,73.27
2017-10-26T10:30:38.216Z,74.07
2017-10-26T10:34:41.640Z,73.48
2017-10-26T10:38:45.051Z,72.84
2017-10-26T10:42:48.476Z,73.15
2017-10-26T10:46:52.646Z,71.59
2017-10-26T10:50:56.105Z,71.99
2017-10-26T10:55:00.271Z,71.29
2017-10-26T10:59:09.192Z,72.30
2017-10-26T11:03:12.588Z,72.49
2017-10-26T11:07:16.034Z,72.36
2017-10-26T11:11:19.423Z,72.12
2017-10-26T11:15:22.846Z,72.61
2017-10-26T11:19:26.256Z,71.67
2017-10-26T11:23:29.687Z,71.36
2017-10-26T11:27:33.094Z,71.86
2017-10-26T11:31:36.531Z,71.49
2017-10-26T11:35:39.977Z,71.86
2017-10-26T11:39:44.144Z,71.55
2017-10-26T11:43:48.337Z,70.56
2017-10-26T11:47:51.775Z,69.99
2017-10-26T11:51:55.952Z,69.46
2017-10-26T11:55:59.379Z,69.01
2017-10-26T12:00:02.769Z,68.29
2017-10-26T12:04:06.235Z,69.27
2017-10-26T12:08:09.738Z,68.27
2017-10-26T12:12:13.286Z,67.71
2017-10-26T12:16:16.736Z,67.75
2017-10-26T12:20:21.021Z,67.96
2017-10-26T12:24:24.502Z,69.25
2017-10-26T12:28:27.996Z,69.53
2017-10-26T12:32:31.452Z,70.01
2017-10-26T12:36:35.292Z,70.81
2017-10-26T12:40:38.723Z,69.16
2017-10-26T12:44:43.198Z,69.65
2017-10-26T12:48:46.604Z,70.21
2017-10-26T12:52:50.059Z,69.53
2017-10-26T12:56:54.217Z,70.09
2017-10-26T13:00:57.662Z,70.05
2017-10-26T13:05:01.096Z,69.38
2017-10-26T13:09:05.630Z,68.60
2017-10-26T13:13:09.796Z,67.81
2017-10-26T13:17:13.248Z,67.80
2017-10-26T13:21:16.633Z,67.07
2017-10-26T13:25:20.396Z,68.52
2017-10-26T13:29:23.821Z,68.68
2017-10-26T13:33:27.292Z,69.28
2017-10-26T13:37:31.466Z,69.56
2017-10-26T13:41:34.909Z,68.74
2017-10-26T13:45:38.360Z,68.68
2017-10-26T13:49:41.822Z,68.62
2017-10-26T13:53:46.003Z,68.89
2017-10-26T13:57:49.446Z,67.55
2017-10-26T14:01:52.859Z,67.72
2017-10-26T14:05:56.307Z,68.27
2017-10-26T14:09:59.834Z,67.54
2017-10-26T14:14:03.287Z,66.88
2017-10-26T14:18:07.478Z,67.86
2017-10-26T14:22:10.926Z,68.25
2017-10-26T14:26:15.156Z,68.83
2017-10-26T14:30:19.374Z,68.91
2017-10-26T14:34:22.799Z,69.41
2017-10-26T14:38:26.267Z,70.10
2017-10-26T14:42:29.697Z,69.84
2017-10-26T14:46:33.967Z,70.14
2017-10-26T14:50:37.362Z,70.19
2017-10-26T14:54:40.815Z,71.16
2017-10-26T14:58:45.020Z,71.57
2017-10-26T15:02:48.452Z,71.88
2017-10-26T15:06:51.881Z,72.30
2017-10-26T15:13:16.888Z,72.79
2017-10-26T15:17:20.370Z,73.55
2017-10-26T15:21:23.909Z,73.93
2017-10-26T15:25:27.365Z,74.72
2017-10-26T15:29:30.880Z,74.37
2017-10-26T15:33:34.613Z,74.63
2017-10-26T15:37:38.102Z,74.26
2017-10-26T15:45:07.978Z,75.11
2017-10-26T15:51:11.467Z,75.76
2017-10-26T15:57:15.100Z,76.07
2017-10-26T16:03:18.702Z,76.48
2017-10-26T16:09:22.957Z,76.74
2017-10-26T16:15:26.565Z,76.98
2017-10-26T16:21:30.043Z,77.70
2017-10-26T16:27:33.556Z,78.49
2017-10-26T16:33:37.057Z,79.27
2017-10-26T16:39:40.588Z,79.64
2017-10-26T16:45:45.020Z,79.95
2017-10-26T16:51:49.651Z,80.53
2017-10-26T16:57:53.470Z,80.41
2017-10-26T17:03:58.045Z,79.91
2017-10-26T17:10:02.348Z,80.47
2017-10-26T17:16:06.319Z,79.44
2017-10-26T17:22:09.819Z,78.96
2017-10-26T17:28:13.824Z,78.63
2017-10-26T17:34:17.458Z,79.14
2017-10-26T17:40:21.712Z,78.99
2017-10-26T17:46:25.382Z,80.09
2017-10-26T17:52:28.999Z,80.62
2017-10-26T17:58:32.483Z,80.69
2017-10-26T18:04:35.968Z,80.63
2017-10-26T18:10:40.534Z,79.19
2017-10-26T18:16:45.170Z,80.19
2017-10-26T18:22:48.942Z,80.32
2017-10-26T18:28:52.436Z,80.20
2017-10-26T18:34:56.721Z,79.93
2017-10-26T18:41:00.387Z,79.27
2017-10-26T18:47:03.903Z,79.48
2017-10-26T18:53:07.384Z,79.70
2017-10-26T18:59:10.899Z,80.70
2017-10-26T19:05:14.439Z,81.16
2017-10-26T19:11:18.169Z,81.49
2017-10-26T19:17:21.663Z,81.24
2017-10-26T19:23:25.151Z,81.33
2017-10-26T19:29:29.389Z,80.61
2017-10-26T19:35:32.864Z,80.39
2017-10-26T19:41:37.394Z,80.62
2017-10-26T19:47:40.886Z,80.56
2017-10-26T19:53:44.509Z,80.86
2017-10-26T19:59:48.409Z,82.02
2017-10-26T20:05:52.682Z,81.49
2017-10-26T20:11:56.176Z,81.51
2017-10-26T20:17:59.673Z,82.28
2017-10-26T20:24:03.388Z,82.67
2017-10-26T20:30:07.116Z,82.80
2017-10-26T20:36:11.399Z,83.71
2017-10-26T20:42:15.734Z,84.51
2017-10-26T20:48:19.603Z,83.70
2017-10-26T20:54:28.667Z,83.50
2017-10-26T21:00:37.715Z,83.86
2017-10-26T21:06:41.194Z,83.83
2017-10-26T21:12:50.241Z,84.50
2017-10-26T21:18:54.697Z,84.46
2017-10-26T21:24:58.316Z,85.08
2017-10-26T21:31:01.809Z,85.27
2017-10-26T21:37:05.305Z,85.56
2017-10-26T21:43:08.796Z,84.84
2017-10-26T21:49:12.345Z,84.57
2017-10-26T21:55:16.040Z,84.82
2017-10-26T22:01:20.205Z,84.46
2017-10-26T22:07:23.693Z,84.62
2017-10-26T22:13:27.170Z,84.75
2017-10-26T22:19:30.695Z,84.35
2017-10-26T22:25:34.521Z,83.84
2017-10-26T22:31:38.006Z,83.60
2017-10-26T22:37:41.484Z,83.07
2017-10-26T22:43:44.973Z,83.45
2017-10-26T22:49:48.694Z,83.43
2017-10-26T22:55:52.942Z,83.19
2017-10-26T23:01:57.492Z,82.72
2017-10-26T23:08:00.973Z,82.18
2017-10-26T23:14:05.575Z,81.63
2017-10-26T23:20:09.141Z,81.43
2017-10-26T23:26:14.152Z,82.38
2017-10-26T23:32:18.469Z,82.37
2017-10-26T23:38:21.959Z,82.11
2017-10-26T23:44:25.459Z,81.75
2017-10-26T23:50:29.700Z,80.96
2017-10-26T23:56:33.443Z,81.54
